KGDV

Dawson Community Airport

Glendive, Montana, USA
METAR KGDV 231356Z AUTO 34005KT 10SM -RA FEW029 BKN075 OVC110 14/13 A2990 RMK AO2 LTG DSNT NW-NE TSE12B14E20B22E37RAB25 SLP114 P0012 T01440133
Observed Flight Rules
May-23 @ 13:56 UTC (an hour ago) Visual Flight Rules
Wind Visibility Clouds Conditions
340° at 5 knots 10 miles
  • Few at 2,900' AGL
  • Broken at 7,500' AGL
  • Overcast at 11,000' AGL
  • Light Rain
Temperatures Readings Precipitation
Current 14°C / 57°F
Dewpoint 13°C / 55°F
Humidity 94%
Altimeter 29.9" Hg
Pressure 1011.4 hPa
Elevation 749
Current Rain 0.12
METAR KGDV 231356Z AUTO 34005KT 10SM -RA FEW029 BKN075 OVC110 14/13 A2990 RMK AO2 LTG DSNT NW-NE TSE12B14E20B22E37RAB25 SLP114 P0012 T01440133
Observed Flight Rules
May-23 @ 13:56 UTC
(an hour ago)
VFR
Wind Visibility
340° at 5 knots 10 miles
Clouds
  • Few at 2,900' AGL
  • Broken at 7,500' AGL
  • Overcast at 11,000' AGL
Conditions
  • Light Rain
Temperature Dewpoint
14°C / 57°F 13°C / 55°F
Humidity Altimeter Pressure
94% 29.9" Hg 1011.4 hPa
Current Rain
0.12